Lake Dolphin — ONHA — position and weather

sailwx.info

Track history (hours):
 
Tides and Currents Weather Stations Pressure Air Temp Water Temp Dewpoint Dewpoint Depression Visibility Wind Speed Wind Dir Waves Ship Positions

Lake Dolphin

Last reported at 2018-Jan-21 18:00 UTC. Time now 2018-Jan-21 18:17 UTC.
Position N 31°37' E 121°16'.

Length 292 m; draft 11.5 m.

Type: Ship. MMSI: 205602000.

Date/timePositionNaut miles runAvg speedWind from/ knotsBaromVisibWave heightAir tempDewpointWater temp
2018-Jan-21 18:00N 31°37' E 121°16'0 0.1
2018-Jan-21 17:30N 31°37' E 121°16'0 0.0
2018-Jan-21 16:57N 31°37' E 121°16'0 0.0
2018-Jan-21 16:30N 31°37' E 121°16'0 0.1
2018-Jan-21 16:00N 31°37' E 121°16'4451.0
2018-Jan-21 16:00N 31°36' E 121°12'4 7.4 330 / 81022.2 5.0 5.0 9.0
2018-Jan-21 15:27N 31°37' E 121°16'0 0.1
2018-Jan-21 15:00N 31°37' E 121°16'0 0.1
2018-Jan-21 14:30N 31°37' E 121°16'0 0.0
2018-Jan-21 14:00N 31°37' E 121°16'0 0.0
2018-Jan-21 13:30N 31°37' E 121°16'0 0.0
2018-Jan-21 12:59N 31°37' E 121°16'0 0.0
2018-Jan-21 12:20N 31°37' E 121°16'0 0.0
2018-Jan-21 11:50N 31°37' E 121°16'0 0.0
2018-Jan-21 11:29N 31°37' E 121°16'0 0.2
2018-Jan-21 10:58N 31°37' E 121°16'0 0.1
2018-Jan-21 10:28N 31°37' E 121°16'0 0.3
2018-Jan-21 09:52N 31°38' E 121°16'0 0.9
2018-Jan-21 09:30N 31°37' E 121°16'0 0.1
2018-Jan-21 08:59N 31°37' E 121°16'0 0.4
2018-Jan-21 08:29N 31°37' E 121°16'1 2.8
2018-Jan-21 08:01N 31°36' E 121°17'510.8
2018-Jan-21 07:30N 31°32' E 121°21'510.4
2018-Jan-21 07:00N 31°29' E 121°26'5 8.8
2018-Jan-21 06:29N 31°26' E 121°30'1410.1
2018-Jan-21 05:05N 31°19' E 121°44'111.7
2018-Jan-21 04:59N 31°18' E 121°46'511.3
2018-Jan-21 04:31N 31°16' E 121°51'810.2
2018-Jan-21 03:45N 31°15' E 122°00'312.2
2018-Jan-21 03:31N 31°14' E 122°04'1510.3
2018-Jan-21 02:01N 31°06' E 122°19'0 9.3
2018-Jan-21 02:00N 31°06' E 122°19'13 7.6
2018-Jan-21 00:21N 31°07' E 122°34'6 0.7
2018-Jan-20 16:00N 31°12' E 122°36'0 0.0 020 / 41025.2 8.0 6.011.0
2018-Jan-19 16:00N 31°12' E 122°36'0 0.0 020 / 21025.2 9.0 7.112.0
2018-Jan-18 15:00N 31°12' E 122°36'0 0.0 020 / 61026.2 9.0 4.912.0
2018-Jan-17 16:00N 31°12' E 122°36'0 0.0 270 / 31025.2 9.0 7.110.0
2018-Jan-16 03:00N 31°12' E 122°36'0 0.0 150 / 151018.2 15.013.310.0
2018-Jan-15 16:00N 31°12' E 122°36'0 0.0 090 / 131022.2 12.012.010.0
2018-Jan-14 16:00N 31°12' E 122°36'   160 / 61025.0 10.0 8.110.0
Track history (hours):
 
Tides and Currents Weather Stations Pressure Air Temp Water Temp Dewpoint Dewpoint Depression Visibility Wind Speed Wind Dir Waves Ship Positions

Lake Dolphin

Last reported at 2018-Jan-21 18:00 UTC. Time now 2018-Jan-21 18:17 UTC.
Position N 31°37' E 121°16'.

Length 292 m; draft 11.5 m.

Type: Ship. MMSI: 205602000.

Date/timePositionNaut miles runAvg speedWind from/ knotsBaromVisibWave heightAir tempDewpointWater temp
2018-Jan-21 18:00N 31°37' E 121°16'0 0.1
2018-Jan-21 17:30N 31°37' E 121°16'0 0.0
2018-Jan-21 16:57N 31°37' E 121°16'0 0.0
2018-Jan-21 16:30N 31°37' E 121°16'0 0.1
2018-Jan-21 16:00N 31°37' E 121°16'4451.0
2018-Jan-21 16:00N 31°36' E 121°12'4 7.4 330 / 81022.2 5.0 5.0 9.0
2018-Jan-21 15:27N 31°37' E 121°16'0 0.1
2018-Jan-21 15:00N 31°37' E 121°16'0 0.1
2018-Jan-21 14:30N 31°37' E 121°16'0 0.0
2018-Jan-21 14:00N 31°37' E 121°16'0 0.0
2018-Jan-21 13:30N 31°37' E 121°16'0 0.0
2018-Jan-21 12:59N 31°37' E 121°16'0 0.0
2018-Jan-21 12:20N 31°37' E 121°16'0 0.0
2018-Jan-21 11:50N 31°37' E 121°16'0 0.0
2018-Jan-21 11:29N 31°37' E 121°16'0 0.2
2018-Jan-21 10:58N 31°37' E 121°16'0 0.1
2018-Jan-21 10:28N 31°37' E 121°16'0 0.3
2018-Jan-21 09:52N 31°38' E 121°16'0 0.9
2018-Jan-21 09:30N 31°37' E 121°16'0 0.1
2018-Jan-21 08:59N 31°37' E 121°16'0 0.4
2018-Jan-21 08:29N 31°37' E 121°16'1 2.8
2018-Jan-21 08:01N 31°36' E 121°17'510.8
2018-Jan-21 07:30N 31°32' E 121°21'510.4
2018-Jan-21 07:00N 31°29' E 121°26'5 8.8
2018-Jan-21 06:29N 31°26' E 121°30'1410.1
2018-Jan-21 05:05N 31°19' E 121°44'111.7
2018-Jan-21 04:59N 31°18' E 121°46'511.3
2018-Jan-21 04:31N 31°16' E 121°51'810.2
2018-Jan-21 03:45N 31°15' E 122°00'312.2
2018-Jan-21 03:31N 31°14' E 122°04'1510.3
2018-Jan-21 02:01N 31°06' E 122°19'0 9.3
2018-Jan-21 02:00N 31°06' E 122°19'13 7.6
2018-Jan-21 00:21N 31°07' E 122°34'6 0.7
2018-Jan-20 16:00N 31°12' E 122°36'0 0.0 020 / 41025.2 8.0 6.011.0
2018-Jan-19 16:00N 31°12' E 122°36'0 0.0 020 / 21025.2 9.0 7.112.0
2018-Jan-18 15:00N 31°12' E 122°36'0 0.0 020 / 61026.2 9.0 4.912.0
2018-Jan-17 16:00N 31°12' E 122°36'0 0.0 270 / 31025.2 9.0 7.110.0
2018-Jan-16 03:00N 31°12' E 122°36'0 0.0 150 / 151018.2 15.013.310.0
2018-Jan-15 16:00N 31°12' E 122°36'0 0.0 090 / 131022.2 12.012.010.0
2018-Jan-14 16:00N 31°12' E 122°36'   160 / 61025.0 10.0 8.110.0

Dump ship's entire track history